Terminal Aerodrome Forecast
Issued by NWS Cleveland, OH

Home | Current Version | Previous Version | Graphics & Text | Print | Product List | Glossary On
Versions: 1 2 3 4 5 6 7 8 9 10 11 12 13 14 15 16 17 18 19 20 21 22 23 24 25 26 27 28 29 30 31
000
FTUS41 KCLE 281507 AAA
TAFCLE
TAF AMD
KCLE 281507Z 2815/2918 23008KT P6SM SCT035 OVC050
     FM281600 09010KT P6SM VCSH SCT025 OVC035
      TEMPO 2818/2822 5SM -RA SCT015 OVC025
     FM290400 08005KT P6SM SCT025 OVC035=

USA.gov is the U.S. government's official web portal to all federal, state and local government web resources and services.